sensor_id;sensor_type;location;lat;lon;timestamp;pressure;altitude;pressure_sealevel;temperature;humidity
29121;BME280;16191;49.548;8.658;2022-08-21T00:00:22;100490.31;;;18.33;79.00
29121;BME280;16191;49.548;8.658;2022-08-21T00:02:56;100489.44;;;18.20;79.80
29121;BME280;16191;49.548;8.658;2022-08-21T00:05:26;100483.09;;;18.22;80.05
29121;BME280;16191;49.548;8.658;2022-08-21T00:07:52;100477.00;;;18.34;78.87
29121;BME280;16191;49.548;8.658;2022-08-21T00:10:19;100475.38;;;18.19;79.96
29121;BME280;16191;49.548;8.658;2022-08-21T00:12:46;100471.50;;;18.12;80.94
29121;BME280;16191;49.548;8.658;2022-08-21T00:15:16;100476.38;;;18.18;80.78
29121;BME280;16191;49.548;8.658;2022-08-21T00:17:43;100474.53;;;18.06;81.14
29121;BME280;16191;49.548;8.658;2022-08-21T00:20:12;100469.47;;;18.03;80.71
29121;BME280;16191;49.548;8.658;2022-08-21T00:22:41;100473.06;;;18.02;80.86
29121;BME280;16191;49.548;8.658;2022-08-21T00:25:09;100476.66;;;18.01;81.23
29121;BME280;16191;49.548;8.658;2022-08-21T00:27:36;100465.88;;;17.91;82.06
29121;BME280;16191;49.548;8.658;2022-08-21T00:30:05;100465.69;;;17.94;81.56
29121;BME280;16191;49.548;8.658;2022-08-21T00:32:33;100465.69;;;17.94;82.19
29121;BME280;16191;49.548;8.658;2022-08-21T00:35:03;100464.28;;;17.89;82.80
29121;BME280;16191;49.548;8.658;2022-08-21T00:37:30;100467.88;;;17.88;83.14
29121;BME280;16191;49.548;8.658;2022-08-21T00:40:27;100461.22;;;17.82;83.08
29121;BME280;16191;49.548;8.658;2022-08-21T00:43:16;100456.03;;;17.80;82.92
29121;BME280;16191;49.548;8.658;2022-08-21T00:46:04;100462.41;;;17.64;84.90
29121;BME280;16191;49.548;8.658;2022-08-21T00:48:52;100462.63;;;17.61;85.05
29121;BME280;16191;49.548;8.658;2022-08-21T00:51:55;100458.72;;;17.54;85.75
29121;BME280;16191;49.548;8.658;2022-08-21T00:54:45;100459.75;;;17.51;85.56
29121;BME280;16191;49.548;8.658;2022-08-21T00:57:17;100460.16;;;17.45;86.59
29121;BME280;16191;49.548;8.658;2022-08-21T00:59:50;100462.25;;;17.40;87.21
29121;BME280;16191;49.548;8.658;2022-08-21T01:02:18;100461.00;;;17.45;86.13
29121;BME280;16191;49.548;8.658;2022-08-21T01:04:47;100459.03;;;17.35;87.60
29121;BME280;16191;49.548;8.658;2022-08-21T01:07:13;100462.97;;;17.29;86.99
29121;BME280;16191;49.548;8.658;2022-08-21T01:09:40;100469.81;;;17.32;87.71
29121;BME280;16191;49.548;8.658;2022-08-21T01:12:08;100462.84;;;17.31;87.46
29121;BME280;16191;49.548;8.658;2022-08-21T01:14:36;100467.38;;;17.29;88.28
29121;BME280;16191;49.548;8.658;2022-08-21T01:17:03;100460.06;;;17.20;88.61
29121;BME280;16191;49.548;8.658;2022-08-21T01:19:30;100460.81;;;17.22;88.54
29121;BME280;16191;49.548;8.658;2022-08-21T01:21:57;100461.75;;;17.21;88.40
29121;BME280;16191;49.548;8.658;2022-08-21T01:24:26;100461.84;;;17.19;88.66
29121;BME280;16191;49.548;8.658;2022-08-21T01:26:52;100466.03;;;17.09;89.41
29121;BME280;16191;49.548;8.658;2022-08-21T01:29:39;100466.66;;;17.12;89.65
29121;BME280;16191;49.548;8.658;2022-08-21T01:32:12;100464.63;;;17.03;90.66
29121;BME280;16191;49.548;8.658;2022-08-21T01:34:43;100464.63;;;17.03;90.45
29121;BME280;16191;49.548;8.658;2022-08-21T01:37:10;100459.38;;;17.03;90.59
29121;BME280;16191;49.548;8.658;2022-08-21T01:39:37;100467.56;;;16.99;90.65
29121;BME280;16191;49.548;8.658;2022-08-21T01:42:05;100466.81;;;16.97;90.21
29121;BME280;16191;49.548;8.658;2022-08-21T01:44:33;100463.31;;;16.96;89.95
29121;BME280;16191;49.548;8.658;2022-08-21T01:47:03;100464.03;;;16.86;91.21
29121;BME280;16191;49.548;8.658;2022-08-21T01:49:29;100461.72;;;16.94;90.89
29121;BME280;16191;49.548;8.658;2022-08-21T01:51:59;100464.25;;;16.95;91.14
29121;BME280;16191;49.548;8.658;2022-08-21T01:54:26;100457.91;;;16.85;91.48
29121;BME280;16191;49.548;8.658;2022-08-21T01:56:53;100464.31;;;16.81;91.96
29121;BME280;16191;49.548;8.658;2022-08-21T01:59:22;100466.19;;;16.79;92.17
29121;BME280;16191;49.548;8.658;2022-08-21T02:01:49;100463.09;;;16.72;93.34
29121;BME280;16191;49.548;8.658;2022-08-21T02:04:16;100472.13;;;16.68;93.56
29121;BME280;16191;49.548;8.658;2022-08-21T02:06:43;100463.94;;;16.73;92.40
29121;BME280;16191;49.548;8.658;2022-08-21T02:09:10;100451.97;;;16.67;93.36
29121;BME280;16191;49.548;8.658;2022-08-21T02:11:37;100455.59;;;16.66;93.59
29121;BME280;16191;49.548;8.658;2022-08-21T02:14:08;100449.72;;;16.61;94.23
29121;BME280;16191;49.548;8.658;2022-08-21T02:16:35;100451.78;;;16.56;94.18
29121;BME280;16191;49.548;8.658;2022-08-21T02:19:02;100458.00;;;16.55;94.72
29121;BME280;16191;49.548;8.658;2022-08-21T02:21:30;100445.00;;;16.52;95.29
29121;BME280;16191;49.548;8.658;2022-08-21T02:23:56;100449.53;;;16.50;95.60
29121;BME280;16191;49.548;8.658;2022-08-21T02:26:23;100442.13;;;16.42;96.47
29121;BME280;16191;49.548;8.658;2022-08-21T02:28:49;100443.72;;;16.45;95.85
29121;BME280;16191;49.548;8.658;2022-08-21T02:31:16;100443.25;;;16.38;96.61
29121;BME280;16191;49.548;8.658;2022-08-21T02:33:42;100448.31;;;16.27;97.82
29121;BME280;16191;49.548;8.658;2022-08-21T02:36:09;100442.47;;;16.36;97.04
29121;BME280;16191;49.548;8.658;2022-08-21T02:38:38;100440.97;;;16.32;97.29
29121;BME280;16191;49.548;8.658;2022-08-21T02:41:07;100435.13;;;16.27;97.85
29121;BME280;16191;49.548;8.658;2022-08-21T02:43:35;100442.69;;;16.19;99.07
29121;BME280;16191;49.548;8.658;2022-08-21T02:46:03;100442.69;;;16.19;98.49
29121;BME280;16191;49.548;8.658;2022-08-21T02:48:31;100441.16;;;16.15;99.12
29121;BME280;16191;49.548;8.658;2022-08-21T02:51:02;100444.81;;;16.13;99.30
29121;BME280;16191;49.548;8.658;2022-08-21T02:53:30;100434.97;;;16.02;100.00
29121;BME280;16191;49.548;8.658;2022-08-21T02:55:59;100439.16;;;16.04;99.52
29121;BME280;16191;49.548;8.658;2022-08-21T02:58:30;100439.66;;;16.11;99.15
29121;BME280;16191;49.548;8.658;2022-08-21T03:00:57;100433.53;;;15.96;100.00
29121;BME280;16191;49.548;8.658;2022-08-21T03:03:25;100435.13;;;15.99;100.00
29121;BME280;16191;49.548;8.658;2022-08-21T03:05:54;100431.09;;;15.93;100.00
29121;BME280;16191;49.548;8.658;2022-08-21T03:08:21;100433.34;;;15.99;100.00
29121;BME280;16191;49.548;8.658;2022-08-21T03:10:53;100435.56;;;15.77;100.00
29121;BME280;16191;49.548;8.658;2022-08-21T03:13:20;100431.53;;;15.86;100.00
29121;BME280;16191;49.548;8.658;2022-08-21T03:15:48;100442.03;;;15.71;100.00
29121;BME280;16191;49.548;8.658;2022-08-21T03:18:15;100444.59;;;15.73;100.00
29121;BME280;16191;49.548;8.658;2022-08-21T03:20:42;100441.94;;;15.73;100.00
29121;BME280;16191;49.548;8.658;2022-08-21T03:23:11;100436.78;;;15.71;100.00
29121;BME280;16191;49.548;8.658;2022-08-21T03:25:45;100442.31;;;15.67;100.00
29121;BME280;16191;49.548;8.658;2022-08-21T03:28:20;100444.78;;;15.54;100.00
29121;BME280;16191;49.548;8.658;2022-08-21T03:30:50;100436.44;;;15.62;100.00
29121;BME280;16191;49.548;8.658;2022-08-21T03:33:17;100439.84;;;15.64;100.00
29121;BME280;16191;49.548;8.658;2022-08-21T03:35:59;100436.91;;;15.54;100.00
29121;BME280;16191;49.548;8.658;2022-08-21T03:38:28;100441.72;;;15.62;100.00
29121;BME280;16191;49.548;8.658;2022-08-21T03:40:55;100438.59;;;15.55;100.00
29121;BME280;16191;49.548;8.658;2022-08-21T03:43:21;100437.47;;;15.59;100.00
29121;BME280;16191;49.548;8.658;2022-08-21T03:45:48;100442.16;;;15.54;100.00
29121;BME280;16191;49.548;8.658;2022-08-21T03:48:18;100441.59;;;15.33;100.00
29121;BME280;16191;49.548;8.658;2022-08-21T03:50:45;100440.97;;;15.44;100.00
29121;BME280;16191;49.548;8.658;2022-08-21T03:53:16;100443.59;;;15.44;100.00
29121;BME280;16191;49.548;8.658;2022-08-21T03:55:45;100451.97;;;15.36;100.00
29121;BME280;16191;49.548;8.658;2022-08-21T03:58:14;100447.34;;;15.40;100.00
29121;BME280;16191;49.548;8.658;2022-08-21T04:00:44;100458.44;;;15.45;100.00
29121;BME280;16191;49.548;8.658;2022-08-21T04:03:10;100452.44;;;15.43;100.00
29121;BME280;16191;49.548;8.658;2022-08-21T04:05:37;100455.22;;;15.40;100.00
29121;BME280;16191;49.548;8.658;2022-08-21T04:08:04;100458.16;;;15.35;100.00
29121;BME280;16191;49.548;8.658;2022-08-21T04:10:34;100458.22;;;15.34;100.00
29121;BME280;16191;49.548;8.658;2022-08-21T04:13:02;100463.84;;;15.28;100.00
29121;BME280;16191;49.548;8.658;2022-08-21T04:15:29;100470.19;;;15.24;100.00
29121;BME280;16191;49.548;8.658;2022-08-21T04:17:55;100470.09;;;15.25;100.00
29121;BME280;16191;49.548;8.658;2022-08-21T04:20:22;100475.03;;;15.16;100.00
29121;BME280;16191;49.548;8.658;2022-08-21T04:22:50;100472.31;;;15.01;100.00
29121;BME280;16191;49.548;8.658;2022-08-21T04:25:21;100476.72;;;15.01;100.00
29121;BME280;16191;49.548;8.658;2022-08-21T04:27:48;100476.41;;;15.07;100.00
29121;BME280;16191;49.548;8.658;2022-08-21T04:30:15;100477.50;;;15.03;100.00
29121;BME280;16191;49.548;8.658;2022-08-21T04:32:47;100479.47;;;15.15;100.00
29121;BME280;16191;49.548;8.658;2022-08-21T04:35:20;100479.09;;;15.21;100.00
29121;BME280;16191;49.548;8.658;2022-08-21T04:37:48;100485.53;;;15.16;100.00
29121;BME280;16191;49.548;8.658;2022-08-21T04:40:16;100482.81;;;15.17;100.00
29121;BME280;16191;49.548;8.658;2022-08-21T04:42:51;100491.75;;;15.15;100.00
29121;BME280;16191;49.548;8.658;2022-08-21T04:45:23;100486.59;;;15.13;100.00
29121;BME280;16191;49.548;8.658;2022-08-21T04:47:52;100490.78;;;15.16;100.00
29121;BME280;16191;49.548;8.658;2022-08-21T04:50:22;100494.38;;;15.15;100.00
29121;BME280;16191;49.548;8.658;2022-08-21T04:53:03;100485.38;;;15.03;100.00
29121;BME280;16191;49.548;8.658;2022-08-21T04:55:31;100488.59;;;15.08;100.00
29121;BME280;16191;49.548;8.658;2022-08-21T04:57:59;100493.41;;;15.16;100.00
29121;BME280;16191;49.548;8.658;2022-08-21T05:00:25;100495.88;;;15.19;100.00
29121;BME280;16191;49.548;8.658;2022-08-21T05:02:53;100494.25;;;15.16;100.00
29121;BME280;16191;49.548;8.658;2022-08-21T05:05:24;100493.25;;;15.19;100.00
29121;BME280;16191;49.548;8.658;2022-08-21T05:07:51;100492.41;;;15.18;100.00
29121;BME280;16191;49.548;8.658;2022-08-21T05:10:19;100502.66;;;15.23;100.00
29121;BME280;16191;49.548;8.658;2022-08-21T05:12:46;100498.19;;;15.25;100.00
29121;BME280;16191;49.548;8.658;2022-08-21T05:15:13;100494.78;;;15.23;100.00
29121;BME280;16191;49.548;8.658;2022-08-21T05:17:40;100501.75;;;15.24;100.00
29121;BME280;16191;49.548;8.658;2022-08-21T05:20:09;100500.28;;;15.18;100.00
29121;BME280;16191;49.548;8.658;2022-08-21T05:22:36;100505.63;;;15.17;100.00
29121;BME280;16191;49.548;8.658;2022-08-21T05:25:04;100502.75;;;15.21;100.00
29121;BME280;16191;49.548;8.658;2022-08-21T05:27:37;100512.59;;;15.33;100.00
29121;BME280;16191;49.548;8.658;2022-08-21T05:30:08;100510.91;;;15.32;100.00
29121;BME280;16191;49.548;8.658;2022-08-21T05:32:35;100512.44;;;15.36;100.00
29121;BME280;16191;49.548;8.658;2022-08-21T05:35:06;100509.03;;;15.34;100.00
29121;BME280;16191;49.548;8.658;2022-08-21T05:37:33;100509.88;;;15.35;100.00
29121;BME280;16191;49.548;8.658;2022-08-21T05:40:01;100508.41;;;15.45;100.00
29121;BME280;16191;49.548;8.658;2022-08-21T05:42:47;100507.69;;;15.59;100.00
29121;BME280;16191;49.548;8.658;2022-08-21T05:45:26;100507.78;;;15.57;100.00
29121;BME280;16191;49.548;8.658;2022-08-21T05:48:16;100509.84;;;15.66;100.00
29121;BME280;16191;49.548;8.658;2022-08-21T05:50:44;100512.13;;;15.72;100.00
29121;BME280;16191;49.548;8.658;2022-08-21T05:53:12;100511.31;;;15.86;100.00
29121;BME280;16191;49.548;8.658;2022-08-21T05:55:40;100506.06;;;15.86;100.00
29121;BME280;16191;49.548;8.658;2022-08-21T05:58:16;100512.31;;;15.99;100.00
29121;BME280;16191;49.548;8.658;2022-08-21T06:00:45;100508.66;;;16.02;100.00
29121;BME280;16191;49.548;8.658;2022-08-21T06:03:20;100505.91;;;16.03;100.00
29121;BME280;16191;49.548;8.658;2022-08-21T06:05:47;100510.38;;;16.17;100.00
29121;BME280;16191;49.548;8.658;2022-08-21T06:08:16;100508.97;;;16.26;100.00
29121;BME280;16191;49.548;8.658;2022-08-21T06:10:44;100516.13;;;16.38;100.00
29121;BME280;16191;49.548;8.658;2022-08-21T06:13:12;100512.06;;;16.46;100.00
29121;BME280;16191;49.548;8.658;2022-08-21T06:15:38;100513.22;;;16.57;99.53
29121;BME280;16191;49.548;8.658;2022-08-21T06:18:05;100513.72;;;16.63;99.10
29121;BME280;16191;49.548;8.658;2022-08-21T06:20:32;100507.22;;;16.69;99.40
29121;BME280;16191;49.548;8.658;2022-08-21T06:23:00;100511.34;;;16.73;99.89
29121;BME280;16191;49.548;8.658;2022-08-21T06:25:27;100506.53;;;16.94;100.00
29121;BME280;16191;49.548;8.658;2022-08-21T06:28:00;100500.88;;;17.00;99.96
29121;BME280;16191;49.548;8.658;2022-08-21T06:30:27;100507.56;;;17.05;99.32
29121;BME280;16191;49.548;8.658;2022-08-21T06:32:54;100511.34;;;17.01;98.96
29121;BME280;16191;49.548;8.658;2022-08-21T06:35:21;100511.06;;;17.06;97.18
29121;BME280;16191;49.548;8.658;2022-08-21T06:37:47;100510.34;;;17.17;95.47
29121;BME280;16191;49.548;8.658;2022-08-21T06:40:14;100511.28;;;17.16;95.54
29121;BME280;16191;49.548;8.658;2022-08-21T06:42:43;100515.28;;;17.35;95.26
29121;BME280;16191;49.548;8.658;2022-08-21T06:45:13;100507.28;;;17.37;95.32
29121;BME280;16191;49.548;8.658;2022-08-21T06:47:39;100507.84;;;17.42;95.50
29121;BME280;16191;49.548;8.658;2022-08-21T06:50:06;100508.72;;;17.55;94.96
29121;BME280;16191;49.548;8.658;2022-08-21T06:52:37;100503.00;;;17.75;95.23
29121;BME280;16191;49.548;8.658;2022-08-21T06:55:05;100512.56;;;17.91;93.99
29121;BME280;16191;49.548;8.658;2022-08-21T06:57:33;100510.13;;;17.88;93.67
29121;BME280;16191;49.548;8.658;2022-08-21T06:59:59;100512.97;;;17.85;94.72
29121;BME280;16191;49.548;8.658;2022-08-21T07:02:26;100513.81;;;17.98;94.60
29121;BME280;16191;49.548;8.658;2022-08-21T07:04:53;100515.09;;;18.05;92.27
29121;BME280;16191;49.548;8.658;2022-08-21T07:07:19;100511.53;;;18.31;91.36
29121;BME280;16191;49.548;8.658;2022-08-21T07:09:46;100517.25;;;18.38;91.17
29121;BME280;16191;49.548;8.658;2022-08-21T07:12:13;100502.66;;;18.45;88.98
29121;BME280;16191;49.548;8.658;2022-08-21T07:14:39;100507.63;;;18.49;88.70
29121;BME280;16191;49.548;8.658;2022-08-21T07:17:06;100507.00;;;18.59;87.81
29121;BME280;16191;49.548;8.658;2022-08-21T07:19:32;100507.00;;;18.71;86.67
29121;BME280;16191;49.548;8.658;2022-08-21T07:22:01;100504.94;;;18.88;85.92
29121;BME280;16191;49.548;8.658;2022-08-21T07:24:28;100498.47;;;19.04;85.97
29121;BME280;16191;49.548;8.658;2022-08-21T07:26:55;100494.53;;;19.10;84.93
29121;BME280;16191;49.548;8.658;2022-08-21T07:29:22;100496.91;;;19.02;85.35
29121;BME280;16191;49.548;8.658;2022-08-21T07:31:48;100496.94;;;19.26;84.36
29121;BME280;16191;49.548;8.658;2022-08-21T07:34:16;100493.34;;;19.14;83.87
29121;BME280;16191;49.548;8.658;2022-08-21T07:36:42;100494.13;;;19.27;84.12
29121;BME280;16191;49.548;8.658;2022-08-21T07:39:09;100492.53;;;19.37;84.18
29121;BME280;16191;49.548;8.658;2022-08-21T07:41:35;100485.44;;;19.62;82.64
29121;BME280;16191;49.548;8.658;2022-08-21T07:44:02;100491.41;;;19.76;82.30
29121;BME280;16191;49.548;8.658;2022-08-21T07:46:32;100491.34;;;20.00;80.84
29121;BME280;16191;49.548;8.658;2022-08-21T07:48:58;100485.47;;;20.08;79.60
29121;BME280;16191;49.548;8.658;2022-08-21T07:51:27;100497.53;;;20.23;79.17
29121;BME280;16191;49.548;8.658;2022-08-21T07:53:55;100488.84;;;20.21;79.40
29121;BME280;16191;49.548;8.658;2022-08-21T07:56:22;100485.69;;;20.51;78.75
29121;BME280;16191;49.548;8.658;2022-08-21T07:58:49;100493.84;;;20.59;77.49
29121;BME280;16191;49.548;8.658;2022-08-21T08:01:17;100487.34;;;20.63;77.32
29121;BME280;16191;49.548;8.658;2022-08-21T08:03:43;100490.97;;;20.84;76.69
29121;BME280;16191;49.548;8.658;2022-08-21T08:06:12;100488.81;;;20.78;76.38
29121;BME280;16191;49.548;8.658;2022-08-21T08:08:42;100480.66;;;21.02;75.16
29121;BME280;16191;49.548;8.658;2022-08-21T08:11:09;100480.91;;;21.10;74.61
29121;BME280;16191;49.548;8.658;2022-08-21T08:13:42;100478.13;;;21.01;74.12
29121;BME280;16191;49.548;8.658;2022-08-21T08:16:10;100488.91;;;20.99;72.89
29121;BME280;16191;49.548;8.658;2022-08-21T08:18:37;100485.47;;;21.19;72.55
29121;BME280;16191;49.548;8.658;2022-08-21T08:21:04;100482.41;;;21.46;69.82
29121;BME280;16191;49.548;8.658;2022-08-21T08:23:32;100478.81;;;21.89;68.29
29121;BME280;16191;49.548;8.658;2022-08-21T08:25:59;100469.47;;;21.74;67.96
29121;BME280;16191;49.548;8.658;2022-08-21T08:28:26;100470.69;;;22.02;67.74
29121;BME280;16191;49.548;8.658;2022-08-21T08:30:53;100474.91;;;22.04;66.75
29121;BME280;16191;49.548;8.658;2022-08-21T08:33:20;100464.75;;;22.40;66.13
29121;BME280;16191;49.548;8.658;2022-08-21T08:35:48;100470.44;;;22.35;65.24
29121;BME280;16191;49.548;8.658;2022-08-21T08:38:16;100458.59;;;22.39;65.38
29121;BME280;16191;49.548;8.658;2022-08-21T08:43:31;100453.78;;;22.94;62.59
29121;BME280;16191;49.548;8.658;2022-08-21T08:46:03;100451.47;;;22.80;62.57
29121;BME280;16191;49.548;8.658;2022-08-21T08:48:36;100446.97;;;23.30;61.92
29121;BME280;16191;49.548;8.658;2022-08-21T08:51:10;100445.44;;;23.56;60.12
29121;BME280;16191;49.548;8.658;2022-08-21T08:53:52;100434.34;;;23.71;59.20
29121;BME280;16191;49.548;8.658;2022-08-21T08:56:27;100433.38;;;23.72;58.87
29121;BME280;16191;49.548;8.658;2022-08-21T08:58:58;100435.06;;;23.63;58.38
29121;BME280;16191;49.548;8.658;2022-08-21T09:01:27;100440.53;;;23.71;58.20
29121;BME280;16191;49.548;8.658;2022-08-21T09:03:54;100441.47;;;23.89;57.93
29121;BME280;16191;49.548;8.658;2022-08-21T09:09:22;100431.28;;;24.32;56.35
29121;BME280;16191;49.548;8.658;2022-08-21T09:12:06;100415.84;;;24.63;54.98
29121;BME280;16191;49.548;8.658;2022-08-21T09:14:50;100415.28;;;24.32;55.44
29121;BME280;16191;49.548;8.658;2022-08-21T09:22:45;100407.31;;;25.40;52.97
29121;BME280;16191;49.548;8.658;2022-08-21T09:25:24;100413.31;;;25.59;51.37
29121;BME280;16191;49.548;8.658;2022-08-21T09:27:52;100407.56;;;25.11;51.96
29121;BME280;16191;49.548;8.658;2022-08-21T09:30:25;100403.06;;;25.29;51.69
29121;BME280;16191;49.548;8.658;2022-08-21T09:32:52;100409.00;;;25.23;51.48
29121;BME280;16191;49.548;8.658;2022-08-21T09:35:21;100402.63;;;25.77;48.70
29121;BME280;16191;49.548;8.658;2022-08-21T09:37:56;100404.88;;;25.64;48.91
29121;BME280;16191;49.548;8.658;2022-08-21T09:40:42;100405.16;;;26.31;46.25
29121;BME280;16191;49.548;8.658;2022-08-21T09:43:19;100403.78;;;26.60;44.98
29121;BME280;16191;49.548;8.658;2022-08-21T09:45:48;100398.91;;;26.64;43.37
29121;BME280;16191;49.548;8.658;2022-08-21T09:48:20;100400.75;;;27.06;43.01
29121;BME280;16191;49.548;8.658;2022-08-21T09:50:48;100410.09;;;27.10;42.68
29121;BME280;16191;49.548;8.658;2022-08-21T09:53:30;100403.78;;;27.27;41.95
29121;BME280;16191;49.548;8.658;2022-08-21T09:56:14;100399.94;;;26.71;42.92
29121;BME280;16191;49.548;8.658;2022-08-21T09:59:00;100399.81;;;26.89;40.17
29121;BME280;16191;49.548;8.658;2022-08-21T10:01:27;100402.09;;;27.75;39.80
29121;BME280;16191;49.548;8.658;2022-08-21T10:04:21;100404.25;;;28.04;39.74
29121;BME280;16191;49.548;8.658;2022-08-21T10:06:48;100398.72;;;28.05;38.08
29121;BME280;16191;49.548;8.658;2022-08-21T10:09:18;100394.34;;;28.04;37.97
29121;BME280;16191;49.548;8.658;2022-08-21T10:12:13;100397.88;;;28.13;36.72
29121;BME280;16191;49.548;8.658;2022-08-21T10:17:28;100390.47;;;28.23;35.57
29121;BME280;16191;49.548;8.658;2022-08-21T10:20:03;100384.75;;;28.65;35.49
29121;BME280;16191;49.548;8.658;2022-08-21T10:28:28;100384.13;;;28.08;36.51
29121;BME280;16191;49.548;8.658;2022-08-21T10:34:37;100383.44;;;28.92;34.90
29121;BME280;16191;49.548;8.658;2022-08-21T10:43:04;100377.03;;;28.31;35.81
29121;BME280;16191;49.548;8.658;2022-08-21T10:45:51;100369.72;;;28.56;35.93
29121;BME280;16191;49.548;8.658;2022-08-21T10:48:49;100365.97;;;28.96;35.40
29121;BME280;16191;49.548;8.658;2022-08-21T10:51:35;100364.19;;;28.80;35.79
29121;BME280;16191;49.548;8.658;2022-08-21T10:54:45;100372.28;;;28.72;35.81
29121;BME280;16191;49.548;8.658;2022-08-21T10:57:22;100367.56;;;29.05;35.29
29121;BME280;16191;49.548;8.658;2022-08-21T11:00:07;100364.59;;;28.69;35.23
29121;BME280;16191;49.548;8.658;2022-08-21T11:02:49;100367.03;;;28.09;36.39
29121;BME280;16191;49.548;8.658;2022-08-21T11:05:18;100353.63;;;28.48;35.00
29121;BME280;16191;49.548;8.658;2022-08-21T11:07:53;100349.50;;;29.59;34.20
29121;BME280;16191;49.548;8.658;2022-08-21T11:10:26;100339.94;;;29.19;34.16
29121;BME280;16191;49.548;8.658;2022-08-21T11:13:06;100345.16;;;28.36;35.21
29121;BME280;16191;49.548;8.658;2022-08-21T11:15:48;100343.59;;;28.42;35.15
29121;BME280;16191;49.548;8.658;2022-08-21T11:18:39;100345.78;;;29.23;34.58
29121;BME280;16191;49.548;8.658;2022-08-21T11:23:59;100329.03;;;29.36;33.18
29121;BME280;16191;49.548;8.658;2022-08-21T11:29:32;100335.69;;;29.02;33.31
29121;BME280;16191;49.548;8.658;2022-08-21T11:40:29;100324.38;;;29.96;32.12
29121;BME280;16191;49.548;8.658;2022-08-21T11:43:34;100320.72;;;31.06;30.75
29121;BME280;16191;49.548;8.658;2022-08-21T11:46:39;100322.78;;;30.82;29.77
29121;BME280;16191;49.548;8.658;2022-08-21T11:52:34;100316.94;;;30.79;29.21
29121;BME280;16191;49.548;8.658;2022-08-21T11:55:26;100316.69;;;29.93;30.21
29121;BME280;16191;49.548;8.658;2022-08-21T11:58:03;100308.09;;;30.63;29.31
29121;BME280;16191;49.548;8.658;2022-08-21T12:00:39;100315.91;;;30.44;28.60
29121;BME280;16191;49.548;8.658;2022-08-21T12:03:12;100307.06;;;30.64;27.80
29121;BME280;16191;49.548;8.658;2022-08-21T12:05:43;100300.34;;;31.18;26.29
29121;BME280;16191;49.548;8.658;2022-08-21T12:08:27;100303.16;;;31.93;26.06
29121;BME280;16191;49.548;8.658;2022-08-21T12:16:35;100287.91;;;32.75;25.56
29121;BME280;16191;49.548;8.658;2022-08-21T12:19:34;100292.13;;;32.23;25.84
29121;BME280;16191;49.548;8.658;2022-08-21T12:26:59;100290.66;;;32.20;25.32
29121;BME280;16191;49.548;8.658;2022-08-21T12:29:35;100298.03;;;32.12;25.32
29121;BME280;16191;49.548;8.658;2022-08-21T12:35:10;100290.56;;;32.61;24.61
29121;BME280;16191;49.548;8.658;2022-08-21T12:38:02;100283.78;;;33.12;24.09
29121;BME280;16191;49.548;8.658;2022-08-21T12:40:41;100281.88;;;34.36;23.89
29121;BME280;16191;49.548;8.658;2022-08-21T12:43:31;100279.38;;;33.63;23.53
29121;BME280;16191;49.548;8.658;2022-08-21T12:45:59;100280.41;;;34.33;23.19
29121;BME280;16191;49.548;8.658;2022-08-21T12:48:31;100269.19;;;34.23;23.46
29121;BME280;16191;49.548;8.658;2022-08-21T12:51:16;100273.38;;;34.95;22.50
29121;BME280;16191;49.548;8.658;2022-08-21T12:56:20;100272.78;;;33.26;23.84
29121;BME280;16191;49.548;8.658;2022-08-21T12:58:47;100274.41;;;33.41;23.79
29121;BME280;16191;49.548;8.658;2022-08-21T13:01:23;100272.97;;;33.45;23.31
29121;BME280;16191;49.548;8.658;2022-08-21T13:03:54;100272.72;;;32.74;24.36
29121;BME280;16191;49.548;8.658;2022-08-21T13:06:36;100277.91;;;32.14;24.68
29121;BME280;16191;49.548;8.658;2022-08-21T13:09:06;100275.41;;;33.79;22.93
29121;BME280;16191;49.548;8.658;2022-08-21T13:11:34;100269.22;;;34.93;21.91
29121;BME280;16191;49.548;8.658;2022-08-21T13:14:04;100267.63;;;35.53;21.30
29121;BME280;16191;49.548;8.658;2022-08-21T13:16:31;100274.00;;;35.65;20.64
29121;BME280;16191;49.548;8.658;2022-08-21T13:19:04;100267.22;;;34.44;22.02
29121;BME280;16191;49.548;8.658;2022-08-21T13:21:42;100263.19;;;34.15;22.38
29121;BME280;16191;49.548;8.658;2022-08-21T13:24:17;100277.97;;;35.20;21.31
29121;BME280;16191;49.548;8.658;2022-08-21T13:27:17;100267.56;;;35.60;20.72
29121;BME280;16191;49.548;8.658;2022-08-21T13:29:44;100258.94;;;36.18;20.51
29121;BME280;16191;49.548;8.658;2022-08-21T13:32:22;100258.09;;;35.87;20.35
29121;BME280;16191;49.548;8.658;2022-08-21T13:34:52;100265.97;;;34.78;21.65
29121;BME280;16191;49.548;8.658;2022-08-21T13:37:21;100258.94;;;34.38;21.68
29121;BME280;16191;49.548;8.658;2022-08-21T13:39:51;100257.69;;;34.97;21.34
29121;BME280;16191;49.548;8.658;2022-08-21T13:42:18;100256.88;;;34.34;22.71
29121;BME280;16191;49.548;8.658;2022-08-21T13:44:47;100268.88;;;34.00;23.35
29121;BME280;16191;49.548;8.658;2022-08-21T13:47:15;100259.78;;;34.26;22.94
29121;BME280;16191;49.548;8.658;2022-08-21T13:49:46;100259.31;;;35.05;22.33
29121;BME280;16191;49.548;8.658;2022-08-21T13:52:25;100258.25;;;36.22;21.80
29121;BME280;16191;49.548;8.658;2022-08-21T13:55:13;100256.81;;;35.90;21.87
29121;BME280;16191;49.548;8.658;2022-08-21T13:57:39;100251.66;;;35.63;21.84
29121;BME280;16191;49.548;8.658;2022-08-21T14:00:25;100259.59;;;34.97;22.00
29121;BME280;16191;49.548;8.658;2022-08-21T14:02:53;100250.06;;;36.59;21.32
29121;BME280;16191;49.548;8.658;2022-08-21T14:05:31;100247.97;;;36.43;21.20
29121;BME280;16191;49.548;8.658;2022-08-21T14:08:11;100247.91;;;37.14;20.27
29121;BME280;16191;49.548;8.658;2022-08-21T14:10:48;100244.09;;;36.50;20.66
29121;BME280;16191;49.548;8.658;2022-08-21T14:13:45;100243.75;;;37.47;19.67